KSNS/SNS METAR and TAF weather

Enter ICAO airport designator
Station Type Date Time Source
KSNS METAR 2022/05/23 15:09 UTC NOAA

KSNS 231509Z 00000KT 7SM SCT010 14/08 A3001 RMK AO2 T01390083


Station Type Date Time Source
KSNS Decoded METAR 2022/05/23 15:09 UTC NOAA

SALINAS MUNICIPAL AIRPORT, CA, United States (KSNS) 36-40N 121-36W 30M
May 23, 2022 - 11:09 AM EDT / 2022.05.23 1509 UTC
Wind: Calm:0
Visibility: 7 mile(s):0
Sky conditions: partly cloudy
Temperature: 57.0 F (13.9 C)
Dew Point: 46.9 F (8.3 C)
Relative Humidity: 68%
Pressure (altimeter): 30.01 in. Hg (1016 hPa)
ob: KSNS 231509Z 00000KT 7SM SCT010 14/08 A3001 RMK AO2 T01390083
cycle: 15

Station Type Date Time Source
KSNS TAF 2022/05/23 12:30 UTC NOAA

TAF KSNS 231128Z 2312/2412 30007KT 6SM HZ FEW009
FM231800 30013G18KT P6SM SKC
FM240400 32008KT P6SM SKC

Example: see airport list